Time;durP1;ratioP1;P1;durP2;ratioP2;P2;SDS_P1;SDS_P2;PMS_P1;PMS_P2;Temp;Humidity;BMP_temperature;BMP_pressure;BME280_temperature;BME280_humidity;BME280_pressure;Samples;Min_cycle;Max_cycle;Signal;HPM_P1;HPM_P2
2022/08/26 00:01:21;;;;;;;19.90;12.07;;;;;;;;;;5062945;28;20040;-76
2022/08/26 00:04:08;;;;;;;18.02;10.80;;;;;;;;;;5086812;28;20490;-75
2022/08/26 00:06:55;;;;;;;19.25;10.95;;;;;;;;;;5074445;28;20094;-76
2022/08/26 00:09:41;;;;;;;22.42;11.98;;;;;;;;;;5087146;28;20413;-75
2022/08/26 00:12:28;;;;;;;17.83;11.70;;;;;;;;;;5087361;28;20127;-75
2022/08/26 00:15:16;;;;;;;15.82;10.70;;;;;;;;;;5077619;28;20505;-75
2022/08/26 00:18:03;;;;;;;15.10;10.07;;;;;;;;;;5075241;28;20040;-75
2022/08/26 00:20:50;;;;;;;21.00;11.32;;;;;;;;;;5078779;28;20075;-75
2022/08/26 00:23:36;;;;;;;12.77;8.60;;;;;;;;;;5081807;28;20513;-75
2022/08/26 00:26:23;;;;;;;15.30;10.18;;;;;;;;;;5087854;28;20048;-75
2022/08/26 00:29:10;;;;;;;15.93;9.45;;;;;;;;;;5084146;28;20135;-75
2022/08/26 00:31:57;;;;;;;13.45;7.43;;;;;;;;;;5067398;28;20072;-75
2022/08/26 00:34:43;;;;;;;15.50;8.30;;;;;;;;;;5087119;28;20052;-75
2022/08/26 00:37:30;;;;;;;10.00;6.70;;;;;;;;;;5069209;28;20517;-75
2022/08/26 00:40:20;;;;;;;20.38;8.18;;;;;;;;;;5072664;28;20040;-75
2022/08/26 00:43:06;;;;;;;12.63;6.45;;;;;;;;;;5088746;28;20052;-75
2022/08/26 00:45:55;;;;;;;10.75;7.15;;;;;;;;;;5087518;28;20130;-75
2022/08/26 00:48:43;;;;;;;11.77;7.07;;;;;;;;;;5090512;28;20043;-75
2022/08/26 00:51:30;;;;;;;12.07;7.50;;;;;;;;;;5091587;28;20179;-75
2022/08/26 00:54:17;;;;;;;10.30;6.00;;;;;;;;;;5085919;28;20051;-75
2022/08/26 00:57:06;;;;;;;15.45;6.70;;;;;;;;;;5092924;28;20067;-76
2022/08/26 00:59:56;;;;;;;9.05;6.32;;;;;;;;;;5071727;28;20625;-75
2022/08/26 01:02:43;;;;;;;13.50;6.95;;;;;;;;;;5076485;28;20044;-76
2022/08/26 01:05:30;;;;;;;9.10;6.40;;;;;;;;;;5074160;28;20044;-75
2022/08/26 01:08:16;;;;;;;14.18;6.68;;;;;;;;;;5091990;28;20040;-75
2022/08/26 01:11:03;;;;;;;10.23;7.18;;;;;;;;;;5088190;28;20044;-75
2022/08/26 01:13:53;;;;;;;9.65;6.70;;;;;;;;;;5092536;28;20036;-75
2022/08/26 01:16:39;;;;;;;8.07;5.93;;;;;;;;;;5073103;28;20040;-75
2022/08/26 01:19:29;;;;;;;13.15;6.70;;;;;;;;;;5087885;28;20075;-75
2022/08/26 01:22:35;;;;;;;16.35;8.75;;;;;;;;;;5082745;28;20036;-75
2022/08/26 01:25:23;;;;;;;9.85;6.28;;;;;;;;;;5090385;28;20089;-75
2022/08/26 01:28:14;;;;;;;12.55;6.70;;;;;;;;;;5074096;28;20135;-75
2022/08/26 01:31:02;;;;;;;15.18;6.72;;;;;;;;;;5089737;28;20079;-75
2022/08/26 01:33:59;;;;;;;8.38;5.60;;;;;;;;;;5071701;28;20055;-75
2022/08/26 01:36:47;;;;;;;13.95;7.57;;;;;;;;;;5090792;28;20058;-75
2022/08/26 01:39:34;;;;;;;20.00;6.47;;;;;;;;;;5079699;28;20609;-75
2022/08/26 01:42:21;;;;;;;12.25;5.28;;;;;;;;;;5072992;28;20494;-75
2022/08/26 01:45:14;;;;;;;13.80;6.50;;;;;;;;;;5072019;28;20291;-75
2022/08/26 01:48:03;;;;;;;10.55;4.35;;;;;;;;;;5081225;28;20124;-75
2022/08/26 01:50:49;;;;;;;7.80;5.00;;;;;;;;;;5073023;28;20044;-75
2022/08/26 01:53:36;;;;;;;8.88;4.32;;;;;;;;;;5090744;28;20084;-76
2022/08/26 01:56:23;;;;;;;13.77;5.20;;;;;;;;;;5094539;28;20046;-75
2022/08/26 01:59:13;;;;;;;8.48;3.95;;;;;;;;;;5091065;28;20131;-75
2022/08/26 02:01:59;;;;;;;6.45;3.40;;;;;;;;;;5091570;28;20040;-76
2022/08/26 02:04:48;;;;;;;10.35;3.50;;;;;;;;;;5058581;28;20116;-75
2022/08/26 02:07:35;;;;;;;8.30;4.32;;;;;;;;;;5091105;28;20098;-75
2022/08/26 02:10:21;;;;;;;9.25;3.55;;;;;;;;;;5089632;28;20048;-75
2022/08/26 02:13:09;;;;;;;8.38;3.67;;;;;;;;;;5089385;28;20048;-75
2022/08/26 02:15:56;;;;;;;10.15;3.67;;;;;;;;;;5091465;28;20048;-75
2022/08/26 02:18:43;;;;;;;6.78;3.58;;;;;;;;;;5073604;28;20044;-75
2022/08/26 02:21:30;;;;;;;7.68;3.60;;;;;;;;;;5091392;28;20336;-75
2022/08/26 02:24:19;;;;;;;7.65;3.42;;;;;;;;;;5071622;28;20051;-75
2022/08/26 02:27:05;;;;;;;13.20;4.30;;;;;;;;;;5061886;28;20493;-75
2022/08/26 02:29:55;;;;;;;7.95;3.55;;;;;;;;;;5080414;28;20494;-75
2022/08/26 02:32:41;;;;;;;11.65;3.97;;;;;;;;;;5083041;28;20058;-76
2022/08/26 02:35:29;;;;;;;9.00;3.40;;;;;;;;;;5066901;28;20485;-76
2022/08/26 02:38:15;;;;;;;9.82;4.13;;;;;;;;;;5069527;28;20299;-75
2022/08/26 02:41:02;;;;;;;7.22;3.63;;;;;;;;;;5071455;28;20505;-75
2022/08/26 02:43:48;;;;;;;9.60;4.30;;;;;;;;;;5090939;28;20035;-75
2022/08/26 02:46:35;;;;;;;11.68;4.15;;;;;;;;;;5056871;28;20109;-76
2022/08/26 02:49:22;;;;;;;9.25;2.88;;;;;;;;;;5069724;28;20060;-75
2022/08/26 02:52:09;;;;;;;11.80;3.47;;;;;;;;;;5078675;28;20186;-75
2022/08/26 02:54:55;;;;;;;11.40;3.20;;;;;;;;;;5067431;28;20094;-75
2022/08/26 02:57:42;;;;;;;8.48;3.75;;;;;;;;;;5090956;28;20235;-75
2022/08/26 03:00:28;;;;;;;12.20;3.38;;;;;;;;;;5089372;28;20472;-75
2022/08/26 03:03:15;;;;;;;11.95;3.60;;;;;;;;;;5084985;28;20062;-76
2022/08/26 03:06:01;;;;;;;7.18;2.75;;;;;;;;;;5076504;28;20512;-76
2022/08/26 03:08:48;;;;;;;8.55;3.35;;;;;;;;;;5089786;28;20036;-75
2022/08/26 03:11:35;;;;;;;8.63;3.00;;;;;;;;;;5071153;28;20405;-75
2022/08/26 03:14:24;;;;;;;7.45;3.40;;;;;;;;;;5089130;28;20048;-75
2022/08/26 03:17:11;;;;;;;8.73;2.58;;;;;;;;;;5073453;28;20044;-75
2022/08/26 03:19:57;;;;;;;10.35;3.55;;;;;;;;;;5071938;28;20094;-75
2022/08/26 03:22:44;;;;;;;7.57;2.83;;;;;;;;;;5077930;28;20390;-75
2022/08/26 03:25:30;;;;;;;10.05;2.42;;;;;;;;;;5089028;28;20052;-76
2022/08/26 03:28:17;;;;;;;12.52;3.75;;;;;;;;;;5089693;28;20056;-75
2022/08/26 03:31:04;;;;;;;11.05;3.85;;;;;;;;;;5090304;28;20490;-75
2022/08/26 03:33:50;;;;;;;9.70;2.97;;;;;;;;;;5084652;28;20055;-75
2022/08/26 03:36:37;;;;;;;7.25;3.50;;;;;;;;;;5088918;28;20498;-76
2022/08/26 03:39:24;;;;;;;11.88;4.10;;;;;;;;;;5057819;28;20055;-74
2022/08/26 03:42:10;;;;;;;5.03;2.95;;;;;;;;;;5088036;28;20573;-74
2022/08/26 03:44:57;;;;;;;6.10;2.83;;;;;;;;;;5072970;28;20448;-74
2022/08/26 03:47:44;;;;;;;8.25;3.47;;;;;;;;;;5072016;28;20409;-74
2022/08/26 03:50:30;;;;;;;8.45;3.40;;;;;;;;;;5064195;28;20052;-74
2022/08/26 03:53:17;;;;;;;12.45;3.78;;;;;;;;;;5072039;28;20044;-74
2022/08/26 03:56:05;;;;;;;9.60;2.53;;;;;;;;;;5056433;28;20058;-75
2022/08/26 03:58:51;;;;;;;6.05;2.17;;;;;;;;;;5064869;28;20037;-74
2022/08/26 04:01:38;;;;;;;9.07;2.85;;;;;;;;;;5067872;28;20505;-74
2022/08/26 04:04:24;;;;;;;8.02;3.10;;;;;;;;;;5085876;28;20047;-74
2022/08/26 04:07:11;;;;;;;8.55;2.58;;;;;;;;;;5071736;28;20052;-74
2022/08/26 04:09:58;;;;;;;7.28;2.55;;;;;;;;;;5101905;28;20409;-75
2022/08/26 04:12:45;;;;;;;8.02;2.80;;;;;;;;;;5088239;28;20079;-77
2022/08/26 04:15:31;;;;;;;9.63;3.95;;;;;;;;;;5088192;28;20059;-76
2022/08/26 04:18:17;;;;;;;7.97;3.10;;;;;;;;;;5088849;28;20040;-76
2022/08/26 04:21:07;;;;;;;7.53;3.20;;;;;;;;;;5074193;28;20123;-75
2022/08/26 04:23:54;;;;;;;8.95;3.25;;;;;;;;;;5087169;28;20306;-76
2022/08/26 04:26:41;;;;;;;10.20;3.05;;;;;;;;;;5087658;28;20032;-75
2022/08/26 04:29:27;;;;;;;8.82;3.00;;;;;;;;;;5064835;28;20521;-75
2022/08/26 04:32:14;;;;;;;10.63;2.53;;;;;;;;;;5076388;28;20535;-75
2022/08/26 04:35:00;;;;;;;7.82;2.17;;;;;;;;;;5083272;28;20062;-75
2022/08/26 04:37:48;;;;;;;7.75;2.67;;;;;;;;;;5088548;28;20516;-75
2022/08/26 04:40:34;;;;;;;7.65;3.42;;;;;;;;;;5049533;28;20048;-75
2022/08/26 04:43:21;;;;;;;5.63;2.30;;;;;;;;;;5084283;28;20097;-75
2022/08/26 04:46:08;;;;;;;8.85;2.70;;;;;;;;;;5089333;28;20501;-75
2022/08/26 04:48:54;;;;;;;8.75;2.80;;;;;;;;;;5088291;28;20056;-75
2022/08/26 04:51:41;;;;;;;7.05;2.63;;;;;;;;;;5065941;28;20397;-74
2022/08/26 04:54:27;;;;;;;6.75;2.88;;;;;;;;;;5083763;28;20247;-75
2022/08/26 04:57:14;;;;;;;6.63;3.67;;;;;;;;;;5083874;28;20512;-75
2022/08/26 05:00:00;;;;;;;6.95;2.42;;;;;;;;;;5084167;28;20081;-75
2022/08/26 05:02:47;;;;;;;9.40;2.13;;;;;;;;;;5086044;28;20044;-75
2022/08/26 05:05:33;;;;;;;12.07;3.00;;;;;;;;;;5071713;28;20052;-75
2022/08/26 05:08:21;;;;;;;8.40;2.20;;;;;;;;;;5085108;28;20497;-75
2022/08/26 05:11:08;;;;;;;6.05;2.15;;;;;;;;;;5084056;28;20096;-75
2022/08/26 05:13:54;;;;;;;7.50;2.70;;;;;;;;;;5086277;28;20524;-75
2022/08/26 05:16:41;;;;;;;7.55;2.42;;;;;;;;;;5067150;28;20098;-75
2022/08/26 05:19:27;;;;;;;5.20;2.47;;;;;;;;;;5067461;28;20093;-75
2022/08/26 05:22:14;;;;;;;6.25;2.58;;;;;;;;;;5067688;28;20262;-75
2022/08/26 05:25:00;;;;;;;4.28;2.10;;;;;;;;;;5071301;28;20050;-75
2022/08/26 05:27:47;;;;;;;6.53;2.10;;;;;;;;;;5087115;28;20036;-72
2022/08/26 05:30:33;;;;;;;9.82;2.78;;;;;;;;;;5082506;28;20039;-74
2022/08/26 05:36:44;;;;;;;9.50;3.28;;;;;;;;;;5103403;28;20084;-74
2022/08/26 05:39:31;;;;;;;8.20;2.72;;;;;;;;;;5092552;28;20072;-75
2022/08/26 05:42:18;;;;;;;14.15;3.50;;;;;;;;;;5075674;28;20083;-75
2022/08/26 05:45:05;;;;;;;10.70;2.90;;;;;;;;;;5094201;28;20088;-74
2022/08/26 05:47:52;;;;;;;9.07;3.10;;;;;;;;;;5086850;28;20044;-73
2022/08/26 05:50:39;;;;;;;7.60;2.25;;;;;;;;;;5080848;28;20052;-74
2022/08/26 05:53:25;;;;;;;9.35;2.40;;;;;;;;;;5094832;28;20461;-75
2022/08/26 05:56:12;;;;;;;8.27;2.60;;;;;;;;;;5090358;28;20047;-75
2022/08/26 05:59:01;;;;;;;8.00;2.20;;;;;;;;;;5068137;28;20086;-75
2022/08/26 06:01:47;;;;;;;11.52;2.80;;;;;;;;;;5082932;28;20489;-75
2022/08/26 06:04:34;;;;;;;5.78;2.20;;;;;;;;;;5091316;28;20052;-75
2022/08/26 06:08:09;;;;;;;5.47;2.00;;;;;;;;;;5084116;28;20044;-76
2022/08/26 06:10:27;;;;;;;5.57;2.25;;;;;;;;;;5078617;28;20036;-75
2022/08/26 06:13:14;;;;;;;9.05;3.33;;;;;;;;;;5088583;28;20047;-75
2022/08/26 06:16:03;;;;;;;9.18;2.60;;;;;;;;;;5075006;28;20036;-75
2022/08/26 06:18:50;;;;;;;5.43;2.15;;;;;;;;;;5071457;28;20040;-74
2022/08/26 06:21:38;;;;;;;7.13;2.08;;;;;;;;;;5057634;28;20076;-74
2022/08/26 06:27:29;;;;;;;8.98;2.72;;;;;;;;;;5092628;28;20043;-73
2022/08/26 06:30:16;;;;;;;5.88;2.17;;;;;;;;;;5083912;28;20115;-73
2022/08/26 06:33:02;;;;;;;7.15;2.65;;;;;;;;;;5066470;28;20076;-71
2022/08/26 07:43:59;;;;;;;11.45;2.95;;;;;;;;;;5065028;27;1390245;-66
2022/08/26 07:46:46;;;;;;;8.57;2.40;;;;;;;;;;5091774;28;20078;-67
2022/08/26 07:49:32;;;;;;;4.30;2.55;;;;;;;;;;5094691;28;20126;-67
2022/08/26 07:52:19;;;;;;;9.80;2.25;;;;;;;;;;5086198;28;20353;-67
2022/08/26 07:55:07;;;;;;;5.28;1.63;;;;;;;;;;5079259;28;20121;-67
2022/08/26 07:57:54;;;;;;;7.45;1.73;;;;;;;;;;5101450;28;20468;-67
2022/08/26 08:00:40;;;;;;;4.25;1.38;;;;;;;;;;5103530;28;20070;-67
2022/08/26 08:03:27;;;;;;;7.20;1.88;;;;;;;;;;5088387;28;20059;-67
2022/08/26 08:06:13;;;;;;;10.57;1.85;;;;;;;;;;5080691;28;20071;-66
2022/08/26 08:09:00;;;;;;;3.72;1.70;;;;;;;;;;5067839;28;20041;-67
2022/08/26 08:11:48;;;;;;;6.38;1.75;;;;;;;;;;5086237;28;20134;-67
2022/08/26 08:14:36;;;;;;;5.22;2.47;;;;;;;;;;5086281;28;20040;-69
2022/08/26 08:17:22;;;;;;;5.15;2.08;;;;;;;;;;5102669;28;20047;-67
2022/08/26 08:20:10;;;;;;;6.47;1.70;;;;;;;;;;5085897;28;20040;-67
2022/08/26 08:22:56;;;;;;;9.30;1.77;;;;;;;;;;5079327;28;20040;-67
2022/08/26 08:25:43;;;;;;;10.70;2.00;;;;;;;;;;5087543;28;20051;-67
2022/08/26 08:28:29;;;;;;;6.07;1.92;;;;;;;;;;5079041;28;20436;-67
2022/08/26 08:31:26;;;;;;;5.47;2.00;;;;;;;;;;5090738;28;20055;-67
2022/08/26 08:34:12;;;;;;;7.63;2.00;;;;;;;;;;5088435;28;20076;-67
2022/08/26 08:36:59;;;;;;;9.50;1.98;;;;;;;;;;5091427;28;20115;-66
2022/08/26 08:39:46;;;;;;;8.75;2.28;;;;;;;;;;5096027;28;20437;-66
2022/08/26 08:42:49;;;;;;;4.07;1.80;;;;;;;;;;5086352;28;20062;-66
2022/08/26 08:45:41;;;;;;;12.40;3.55;;;;;;;;;;5073167;28;20127;-67
2022/08/26 08:48:29;;;;;;;12.38;2.38;;;;;;;;;;5079684;28;20055;-66
2022/08/26 08:51:35;;;;;;;13.20;3.55;;;;;;;;;;5078871;28;20078;-66
2022/08/26 08:54:25;;;;;;;7.65;2.47;;;;;;;;;;5074025;28;20516;-67
2022/08/26 08:57:23;;;;;;;6.60;1.85;;;;;;;;;;5082244;28;20513;-66
2022/08/26 09:00:12;;;;;;;4.85;1.80;;;;;;;;;;5059633;28;20068;-66
2022/08/26 09:03:03;;;;;;;6.22;1.63;;;;;;;;;;5059592;28;20051;-66
2022/08/26 09:05:52;;;;;;;6.90;2.47;;;;;;;;;;5072990;28;20047;-66
2022/08/26 09:08:39;;;;;;;10.45;3.47;;;;;;;;;;5078774;28;20130;-66
2022/08/26 09:11:26;;;;;;;7.05;1.90;;;;;;;;;;5081070;28;20041;-66
2022/08/26 09:14:12;;;;;;;7.72;2.20;;;;;;;;;;5068938;28;20036;-67
2022/08/26 09:17:22;;;;;;;5.53;2.88;;;;;;;;;;5048844;28;20264;-66
2022/08/26 09:20:09;;;;;;;8.13;2.15;;;;;;;;;;5065007;28;20044;-66
2022/08/26 09:22:56;;;;;;;5.07;2.10;;;;;;;;;;5082775;28;20044;-66
2022/08/26 09:25:47;;;;;;;10.55;2.88;;;;;;;;;;5049716;28;20059;-66
2022/08/26 09:28:34;;;;;;;4.05;2.08;;;;;;;;;;5072466;28;20051;-66
2022/08/26 09:31:38;;;;;;;6.40;1.75;;;;;;;;;;5055388;28;20131;-66
2022/08/26 09:34:25;;;;;;;6.22;1.83;;;;;;;;;;5056189;28;20040;-66
2022/08/26 09:37:12;;;;;;;4.35;1.70;;;;;;;;;;5079700;28;20040;-67
2022/08/26 09:40:19;;;;;;;5.32;2.28;;;;;;;;;;5078611;28;20124;-66
2022/08/26 09:43:12;;;;;;;3.75;1.35;;;;;;;;;;5092805;28;20056;-68
2022/08/26 09:45:58;;;;;;;;;;;;;;;;;;5073113;28;20044;-68
2022/08/26 09:48:45;;;;;;;4.55;2.05;;;;;;;;;;5075318;28;19923;-68
2022/08/26 09:51:31;;;;;;;6.75;1.63;;;;;;;;;;5067577;28;20041;-68
2022/08/26 09:54:28;;;;;;;3.53;1.15;;;;;;;;;;5074559;28;20062;-68
2022/08/26 09:57:19;;;;;;;3.50;1.17;;;;;;;;;;5077779;28;20068;-68
2022/08/26 10:00:23;;;;;;;3.92;1.30;;;;;;;;;;5083253;28;20085;-68
2022/08/26 10:03:11;;;;;;;6.47;1.83;;;;;;;;;;5069985;28;20040;-68
2022/08/26 10:06:02;;;;;;;4.22;1.90;;;;;;;;;;5071397;28;20102;-69
2022/08/26 10:08:51;;;;;;;3.42;1.75;;;;;;;;;;5064605;28;20509;-68
2022/08/26 10:11:47;;;;;;;5.38;1.35;;;;;;;;;;5081311;28;20084;-68
2022/08/26 10:14:38;;;;;;;4.93;1.63;;;;;;;;;;5080541;28;20088;-68
2022/08/26 10:17:35;;;;;;;9.02;1.52;;;;;;;;;;5080671;28;20510;-68
2022/08/26 10:20:25;;;;;;;9.15;1.70;;;;;;;;;;5061284;28;20214;-67
2022/08/26 10:23:19;;;;;;;3.20;1.42;;;;;;;;;;5064876;28;20041;-66
2022/08/26 10:26:15;;;;;;;2.83;1.30;;;;;;;;;;5066535;28;20430;-66
2022/08/26 10:29:07;;;;;;;2.85;1.38;;;;;;;;;;5064921;28;20491;-66
2022/08/26 10:32:05;;;;;;;4.47;1.40;;;;;;;;;;5067507;28;20499;-66
2022/08/26 10:34:52;;;;;;;4.68;1.52;;;;;;;;;;5059857;28;20075;-66
2022/08/26 10:37:50;;;;;;;3.08;1.30;;;;;;;;;;5066018;28;20054;-66
2022/08/26 10:40:43;;;;;;;4.80;1.50;;;;;;;;;;5080447;28;20040;-66
2022/08/26 10:43:33;;;;;;;8.63;1.48;;;;;;;;;;5072343;28;20082;-66
2022/08/26 10:46:22;;;;;;;7.60;1.45;;;;;;;;;;5074162;28;20384;-66
2022/08/26 10:49:10;;;;;;;4.82;1.60;;;;;;;;;;5057956;28;20040;-67
2022/08/26 10:52:16;;;;;;;5.53;1.55;;;;;;;;;;5076358;28;20043;-67
2022/08/26 10:55:06;;;;;;;3.47;1.67;;;;;;;;;;5071594;28;20067;-66
2022/08/26 10:58:00;;;;;;;3.13;1.38;;;;;;;;;;5069206;28;20480;-66
2022/08/26 11:04:16;;;;;;;2.40;1.15;;;;;;;;;;5074313;28;20040;-66
2022/08/26 11:07:22;;;;;;;5.45;1.70;;;;;;;;;;5063391;28;20080;-66
2022/08/26 11:10:31;;;;;;;4.47;1.27;;;;;;;;;;5078153;28;20048;-66
2022/08/26 11:13:18;;;;;;;8.02;2.95;;;;;;;;;;5068054;28;20040;-66
2022/08/26 11:16:05;;;;;;;2.72;1.20;;;;;;;;;;5073077;28;20044;-66
2022/08/26 11:18:54;;;;;;;5.07;1.50;;;;;;;;;;5079184;28;20514;-66
2022/08/26 11:21:42;;;;;;;3.88;1.75;;;;;;;;;;5069417;28;20048;-67
2022/08/26 11:24:39;;;;;;;4.70;1.50;;;;;;;;;;5081163;28;20335;-66
2022/08/26 11:27:26;;;;;;;4.70;1.60;;;;;;;;;;5061672;28;20048;-66
2022/08/26 11:30:14;;;;;;;4.80;1.70;;;;;;;;;;5065782;28;20528;-66
2022/08/26 11:33:01;;;;;;;4.97;1.52;;;;;;;;;;5073613;28;20413;-66
2022/08/26 11:35:48;;;;;;;5.20;1.75;;;;;;;;;;5063464;28;20048;-67
2022/08/26 11:38:41;;;;;;;2.42;1.30;;;;;;;;;;5060524;28;20071;-66
2022/08/26 11:41:29;;;;;;;4.53;1.70;;;;;;;;;;5072115;28;20114;-66
2022/08/26 11:44:18;;;;;;;4.00;1.73;;;;;;;;;;5078149;28;20290;-67
2022/08/26 11:47:07;;;;;;;8.90;2.10;;;;;;;;;;5076491;28;20040;-67
2022/08/26 11:50:15;;;;;;;6.85;1.95;;;;;;;;;;5054977;28;20104;-66
2022/08/26 11:53:05;;;;;;;4.35;1.33;;;;;;;;;;5077994;28;20123;-66
2022/08/26 11:55:53;;;;;;;13.30;2.20;;;;;;;;;;5071420;28;20105;-66
2022/08/26 11:58:43;;;;;;;8.40;2.55;;;;;;;;;;5088497;28;20044;-67
2022/08/26 12:01:31;;;;;;;4.18;1.38;;;;;;;;;;5074933;28;20051;-66
2022/08/26 12:04:30;;;;;;;5.07;1.77;;;;;;;;;;5070440;28;20434;-66
2022/08/26 12:07:17;;;;;;;5.35;1.60;;;;;;;;;;5080174;28;20033;-67
2022/08/26 12:10:05;;;;;;;4.45;1.70;;;;;;;;;;5084317;28;20045;-67
2022/08/26 12:12:56;;;;;;;5.50;2.47;;;;;;;;;;5085323;28;20051;-67
2022/08/26 12:15:51;;;;;;;5.60;1.67;;;;;;;;;;5084694;28;20051;-67
2022/08/26 12:18:38;;;;;;;5.90;1.60;;;;;;;;;;5079104;28;20407;-67
2022/08/26 12:21:30;;;;;;;4.40;1.60;;;;;;;;;;5085004;28;20040;-67
2022/08/26 12:24:18;;;;;;;7.30;1.65;;;;;;;;;;5087334;28;20052;-66
2022/08/26 12:27:20;;;;;;;6.68;1.83;;;;;;;;;;5080028;28;20437;-67
2022/08/26 12:30:12;;;;;;;2.88;1.63;;;;;;;;;;5075643;28;20036;-67
2022/08/26 12:33:09;;;;;;;4.93;1.45;;;;;;;;;;5055866;28;20446;-67
2022/08/26 12:35:56;;;;;;;6.22;1.40;;;;;;;;;;5051385;28;20434;-66
2022/08/26 12:38:43;;;;;;;3.97;1.20;;;;;;;;;;5075334;28;20048;-66
2022/08/26 12:41:38;;;;;;;3.83;1.08;;;;;;;;;;5077322;28;20123;-67
2022/08/26 12:44:43;;;;;;;6.15;1.30;;;;;;;;;;5061855;28;20053;-66
2022/08/26 12:47:41;;;;;;;5.55;1.55;;;;;;;;;;5083059;28;20040;-66
2022/08/26 12:50:30;;;;;;;5.85;2.65;;;;;;;;;;5071841;28;20051;-67
2022/08/26 12:53:21;;;;;;;5.78;1.45;;;;;;;;;;5058884;28;20329;-66
2022/08/26 12:56:20;;;;;;;3.00;1.30;;;;;;;;;;5078663;28;20049;-66
2022/08/26 12:59:08;;;;;;;3.95;1.10;;;;;;;;;;5073134;28;20044;-66
2022/08/26 13:01:55;;;;;;;8.02;2.85;;;;;;;;;;5072127;28;20123;-66
2022/08/26 13:04:42;;;;;;;6.47;1.42;;;;;;;;;;5073025;28;20058;-66
2022/08/26 13:07:28;;;;;;;3.63;1.23;;;;;;;;;;5090044;28;20156;-67
2022/08/26 13:10:33;;;;;;;4.47;1.17;;;;;;;;;;5090906;28;20051;-66
2022/08/26 13:13:19;;;;;;;3.33;1.60;;;;;;;;;;5091759;28;20051;-67
2022/08/26 13:16:06;;;;;;;3.80;1.50;;;;;;;;;;5087720;28;20087;-67
2022/08/26 13:18:54;;;;;;;7.10;2.03;;;;;;;;;;5072907;28;20414;-66
2022/08/26 13:21:40;;;;;;;3.50;1.40;;;;;;;;;;5074983;28;20036;-66
2022/08/26 13:24:43;;;;;;;4.57;1.77;;;;;;;;;;5060938;28;20423;-66
2022/08/26 13:27:30;;;;;;;3.08;1.67;;;;;;;;;;5077146;28;20041;-66
2022/08/26 13:30:16;;;;;;;5.00;1.60;;;;;;;;;;5072348;28;20066;-66
2022/08/26 13:33:02;;;;;;;4.00;1.73;;;;;;;;;;5074988;28;20121;-66
2022/08/26 13:35:49;;;;;;;5.60;2.03;;;;;;;;;;5073000;28;20082;-66
2022/08/26 13:38:35;;;;;;;5.68;1.73;;;;;;;;;;5058850;28;20069;-66
2022/08/26 13:41:22;;;;;;;4.40;1.60;;;;;;;;;;5069946;28;20065;-66
2022/08/26 13:44:09;;;;;;;5.18;1.70;;;;;;;;;;5073820;28;20570;-67
2022/08/26 13:46:56;;;;;;;3.50;1.35;;;;;;;;;;5070407;28;20051;-68
2022/08/26 13:49:43;;;;;;;7.95;1.75;;;;;;;;;;5071457;28;20144;-68
2022/08/26 13:52:30;;;;;;;3.53;1.42;;;;;;;;;;5055467;28;20132;-68
2022/08/26 13:55:16;;;;;;;4.20;1.60;;;;;;;;;;5074465;28;20037;-68
2022/08/26 13:58:02;;;;;;;5.05;1.55;;;;;;;;;;5072589;28;20036;-68
2022/08/26 14:00:49;;;;;;;8.45;2.00;;;;;;;;;;5073890;28;20155;-68
2022/08/26 14:03:35;;;;;;;4.18;1.67;;;;;;;;;;5071431;28;20044;-68
2022/08/26 14:06:22;;;;;;;4.53;1.77;;;;;;;;;;5074614;28;20541;-68
2022/08/26 14:09:09;;;;;;;10.30;2.70;;;;;;;;;;5057254;28;20044;-68
2022/08/26 14:11:55;;;;;;;6.00;1.77;;;;;;;;;;5075765;28;20122;-68
2022/08/26 14:14:42;;;;;;;3.13;1.48;;;;;;;;;;5073950;28;20039;-68
2022/08/26 14:17:31;;;;;;;10.55;2.63;;;;;;;;;;5057936;28;20127;-68
2022/08/26 14:20:25;;;;;;;5.30;1.77;;;;;;;;;;5072604;28;20051;-69
2022/08/26 14:23:12;;;;;;;7.53;1.80;;;;;;;;;;5076078;28;20044;-68
2022/08/26 14:25:58;;;;;;;6.68;1.55;;;;;;;;;;5059663;28;20101;-68
2022/08/26 14:28:45;;;;;;;8.77;1.67;;;;;;;;;;5079464;28;20044;-68
2022/08/26 14:31:33;;;;;;;3.17;1.17;;;;;;;;;;5072988;28;20051;-68
2022/08/26 14:34:19;;;;;;;3.40;1.35;;;;;;;;;;5072046;28;20048;-68
2022/08/26 14:37:06;;;;;;;3.97;1.55;;;;;;;;;;5070082;28;20098;-68
2022/08/26 14:39:52;;;;;;;3.10;1.15;;;;;;;;;;5069170;28;20487;-68
2022/08/26 14:42:40;;;;;;;5.53;1.80;;;;;;;;;;5075336;28;20129;-68
2022/08/26 14:45:27;;;;;;;3.65;1.60;;;;;;;;;;5073513;28;20052;-68
2022/08/26 14:48:13;;;;;;;4.53;1.55;;;;;;;;;;5092179;28;20054;-68
2022/08/26 14:51:00;;;;;;;3.65;1.50;;;;;;;;;;5095547;28;20383;-68
2022/08/26 14:56:54;;;;;;;7.28;2.33;;;;;;;;;;5088892;28;20441;-66
2022/08/26 14:59:42;;;;;;;3.67;1.50;;;;;;;;;;5076272;28;20051;-66
2022/08/26 15:02:28;;;;;;;8.60;2.28;;;;;;;;;;5078847;28;20054;-66
2022/08/26 15:05:14;;;;;;;5.13;1.40;;;;;;;;;;5071197;28;20044;-66
2022/08/26 15:08:03;;;;;;;6.75;1.90;;;;;;;;;;5077562;28;20139;-67
2022/08/26 15:10:49;;;;;;;4.18;1.60;;;;;;;;;;5082426;28;20040;-66
2022/08/26 15:13:36;;;;;;;4.65;1.77;;;;;;;;;;5080688;28;20052;-67
2022/08/26 15:16:22;;;;;;;4.20;1.75;;;;;;;;;;5073395;28;20093;-66
2022/08/26 15:19:09;;;;;;;5.85;2.17;;;;;;;;;;5066426;28;20241;-66
2022/08/26 15:21:56;;;;;;;7.95;1.92;;;;;;;;;;5056051;28;20048;-67
2022/08/26 15:24:42;;;;;;;7.88;2.10;;;;;;;;;;5073159;28;20136;-66
2022/08/26 15:27:29;;;;;;;3.85;1.83;;;;;;;;;;5070758;28;20133;-67
2022/08/26 15:30:17;;;;;;;10.40;1.67;;;;;;;;;;5066804;28;20044;-66
2022/08/26 15:33:03;;;;;;;5.07;1.73;;;;;;;;;;5070239;28;20071;-67
2022/08/26 15:35:49;;;;;;;7.95;1.75;;;;;;;;;;5073937;28;20547;-67
2022/08/26 15:38:38;;;;;;;4.57;2.20;;;;;;;;;;5073392;28;20035;-67
2022/08/26 15:41:24;;;;;;;4.05;1.50;;;;;;;;;;5072617;28;20032;-67
2022/08/26 15:44:12;;;;;;;5.80;1.42;;;;;;;;;;5073144;28;20055;-67
2022/08/26 15:46:59;;;;;;;4.50;1.92;;;;;;;;;;5059121;28;20041;-66
2022/08/26 15:49:45;;;;;;;4.65;1.75;;;;;;;;;;5074876;28;20080;-67
2022/08/26 15:52:32;;;;;;;4.00;1.48;;;;;;;;;;5071504;28;20117;-66
2022/08/26 15:55:19;;;;;;;4.97;1.67;;;;;;;;;;5071694;28;20042;-66
2022/08/26 15:58:05;;;;;;;3.50;1.77;;;;;;;;;;5077328;28;20097;-66
2022/08/26 16:00:52;;;;;;;3.40;1.40;;;;;;;;;;5079780;28;20037;-66
2022/08/26 16:03:39;;;;;;;6.03;2.33;;;;;;;;;;5076731;28;20076;-67
2022/08/26 16:06:27;;;;;;;5.47;2.17;;;;;;;;;;5055537;28;20055;-66
2022/08/26 16:09:14;;;;;;;3.55;1.65;;;;;;;;;;5076280;28;20047;-66
2022/08/26 16:12:00;;;;;;;11.27;1.88;;;;;;;;;;5081764;28;20329;-66
2022/08/26 16:14:50;;;;;;;6.30;2.10;;;;;;;;;;5064784;28;20062;-66
2022/08/26 16:17:36;;;;;;;4.07;1.30;;;;;;;;;;5076589;28;20040;-66
2022/08/26 16:20:24;;;;;;;5.55;2.00;;;;;;;;;;5080013;28;20056;-66
2022/08/26 16:23:11;;;;;;;10.95;2.75;;;;;;;;;;5087808;28;20083;-67
2022/08/26 16:25:57;;;;;;;6.85;1.67;;;;;;;;;;5071546;28;20227;-66
2022/08/26 16:28:44;;;;;;;5.82;2.08;;;;;;;;;;5091595;28;20043;-66
2022/08/26 16:31:31;;;;;;;4.38;1.80;;;;;;;;;;5075957;28;20040;-66
2022/08/26 16:34:17;;;;;;;4.45;1.88;;;;;;;;;;5077041;28;20407;-66
2022/08/26 16:37:04;;;;;;;2.05;1.10;;;;;;;;;;5085173;28;20036;-66
2022/08/26 16:39:50;;;;;;;5.65;1.60;;;;;;;;;;5089475;28;20129;-66
2022/08/26 16:42:37;;;;;;;5.88;1.77;;;;;;;;;;5098245;28;20366;-66
2022/08/26 16:45:24;;;;;;;4.38;1.80;;;;;;;;;;5061799;28;20044;-66
2022/08/26 16:48:10;;;;;;;8.70;2.15;;;;;;;;;;5082309;28;20044;-66
2022/08/26 16:50:56;;;;;;;4.40;1.70;;;;;;;;;;5069247;28;20055;-66
2022/08/26 16:53:44;;;;;;;4.93;2.22;;;;;;;;;;5077652;28;20048;-66
2022/08/26 16:56:31;;;;;;;3.80;2.00;;;;;;;;;;5079261;28;21320;-66
2022/08/26 16:59:18;;;;;;;7.43;2.10;;;;;;;;;;5078364;28;20195;-66
2022/08/26 17:02:04;;;;;;;5.80;2.63;;;;;;;;;;5077450;28;20075;-66
2022/08/26 17:04:51;;;;;;;6.72;1.95;;;;;;;;;;5066790;28;20430;-66
2022/08/26 17:07:38;;;;;;;5.43;1.80;;;;;;;;;;5082760;28;20103;-66
2022/08/26 17:10:25;;;;;;;5.13;1.77;;;;;;;;;;5077008;28;20050;-66
2022/08/26 17:13:11;;;;;;;4.30;1.90;;;;;;;;;;5059788;28;20045;-66
2022/08/26 17:15:58;;;;;;;5.50;2.05;;;;;;;;;;5065347;28;20043;-66
2022/08/26 17:18:44;;;;;;;5.20;2.20;;;;;;;;;;5082151;28;20036;-66
2022/08/26 17:21:32;;;;;;;2.85;1.83;;;;;;;;;;5079166;28;20117;-66
2022/08/26 17:24:18;;;;;;;5.28;2.50;;;;;;;;;;5059721;28;20131;-66
2022/08/26 17:27:05;;;;;;;5.20;2.95;;;;;;;;;;5075162;28;20525;-66
2022/08/26 17:29:51;;;;;;;6.03;2.05;;;;;;;;;;5082920;28;20104;-66
2022/08/26 17:32:38;;;;;;;3.20;1.95;;;;;;;;;;5084504;28;20127;-66
2022/08/26 17:35:25;;;;;;;5.25;2.10;;;;;;;;;;5088098;28;20267;-66
2022/08/26 17:38:11;;;;;;;5.65;1.98;;;;;;;;;;5077307;28;20093;-66
2022/08/26 17:40:58;;;;;;;4.50;1.95;;;;;;;;;;5077382;28;20102;-66
2022/08/26 17:43:44;;;;;;;4.00;1.85;;;;;;;;;;5090997;28;20232;-66
2022/08/26 17:46:32;;;;;;;4.03;1.98;;;;;;;;;;5086055;28;20052;-66
2022/08/26 17:49:18;;;;;;;6.32;2.10;;;;;;;;;;5077176;28;20040;-67
2022/08/26 17:52:05;;;;;;;3.72;2.15;;;;;;;;;;5086961;28;20133;-66
2022/08/26 17:54:52;;;;;;;7.22;2.50;;;;;;;;;;5081112;28;20040;-66
2022/08/26 17:57:38;;;;;;;4.50;1.90;;;;;;;;;;5070950;28;20100;-66
2022/08/26 18:00:27;;;;;;;6.93;1.90;;;;;;;;;;5065905;28;20041;-66
2022/08/26 18:03:13;;;;;;;5.47;1.92;;;;;;;;;;5073646;28;20055;-66
2022/08/26 18:05:59;;;;;;;4.28;2.40;;;;;;;;;;5057415;28;20139;-66
2022/08/26 18:08:46;;;;;;;6.40;2.35;;;;;;;;;;5084231;28;20044;-66